D/T METAR WX W/DIR W/SPE G/SPE TEMP DEWP
15/01/19 22:20 EGKB 152220Z 21011KT 9999 FEW010 SCT028 07/06 Q1014 SSW (210°) 12.7mph 7°C 6°C
15/01/19 21:50 EGKB 152150Z 21011KT 9999 SCT020 07/05 Q1015 SSW (210°) 12.7mph 7°C 5°C
15/01/19 20:50 EGKB 152050Z 21012KT 9999 SCT022 07/05 Q1015 SSW (210°) 13.8mph 7°C 5°C
15/01/19 20:20 EGKB 152020Z 21011KT 190V250 9999 SCT027 07/05 Q1016 SSW (210°) 12.7mph 7°C 5°C
15/01/19 19:50 EGKB 151950Z 21012KT 9999 SCT027 07/05 Q1016 SSW (210°) 13.8mph 7°C 5°C
15/01/19 19:20 EGKB 151920Z 21012KT 9999 SCT025 08/05 Q1016 SSW (210°) 13.8mph 8°C 5°C
15/01/19 18:50 EGKB 151850Z 21013KT 9999 SCT025 07/05 Q1016 SSW (210°) 15.0mph 7°C 5°C
15/01/19 18:20 EGKB 151820Z 21013KT 9999 BKN030 08/05 Q1016 SSW (210°) 15.0mph 8°C 5°C
15/01/19 17:50 EGKB 151750Z 21011KT 9999 BKN028 08/05 Q1016 SSW (210°) 12.7mph 8°C 5°C
15/01/19 17:20 EGKB 151720Z 21011KT 9999 BKN030 07/05 Q1017 SSW (210°) 12.7mph 7°C 5°C
15/01/19 16:50 EGKB 151650Z 21010KT 9999 BKN030 07/05 Q1017 SSW (210°) 11.5mph 7°C 5°C
15/01/19 16:20 EGKB 151620Z 21008KT 9999 BKN025 07/05 Q1017 SSW (210°) 9.2mph 7°C 5°C
15/01/19 15:20 EGKB 151520Z 23008KT 190V260 9999 FEW017 BKN030 08/05 Q1018 SW (230°) 9.2mph 8°C 5°C
15/01/19 14:50 EGKB 151450Z 23009KT 200V260 9999 BKN024 08/05 Q1018 SW (230°) 10.4mph 8°C 5°C
15/01/19 14:20 EGKB 151420Z 23009KT 9999 FEW015 BKN028 08/05 Q1018 SW (230°) 10.4mph 8°C 5°C
15/01/19 13:50 EGKB 151350Z 24010KT 190V270 9999 BKN015 08/05 Q1018 WSW (240°) 11.5mph 8°C 5°C
15/01/19 13:20 EGKB 151320Z 24011KT 210V270 9999 VCSH BKN015 08/05 Q1018 VCSH WSW (240°) 12.7mph 8°C 5°C
15/01/19 12:50 EGKB 151250Z 23011KT 9999 SCT010 SCT030 08/05 Q1019 SW (230°) 12.7mph 8°C 5°C
15/01/19 12:20 EGKB 151220Z 22012KT 9999 SCT008 SCT032 07/05 Q1019 SW (220°) 13.8mph 7°C 5°C
15/01/19 11:50 EGKB 151150Z 22011KT 9999 BKN032 07/05 Q1019 SW (220°) 12.7mph 7°C 5°C
15/01/19 11:20 EGKB 151120Z 22010KT 190V250 9999 BKN030 06/04 Q1020 SW (220°) 11.5mph 6°C 4°C
15/01/19 10:50 EGKB 151050Z 21010KT 9999 BKN030 06/04 Q1020 SSW (210°) 11.5mph 6°C 4°C
15/01/19 10:20 EGKB 151020Z 21009KT 9999 BKN025 05/03 Q1020 SSW (210°) 10.4mph 5°C 3°C
15/01/19 09:50 EGKB 150950Z 22010KT 9999 BKN028 06/03 Q1020 SW (220°) 11.5mph 6°C 3°C
15/01/19 09:20 EGKB 150920Z 22009KT 9999 BKN030 05/03 Q1020 SW (220°) 10.4mph 5°C 3°C
15/01/19 08:50 EGKB 150850Z 22008KT 9999 BKN025 05/03 Q1021 SW (220°) 9.2mph 5°C 3°C
15/01/19 08:20 EGKB 150820Z 23007KT 200V260 9999 BKN025 05/03 Q1021 SW (230°) 8.1mph 5°C 3°C
15/01/19 07:50 EGKB 150750Z 23006KT 9999 BKN025 05/03 Q1021 SW (230°) 6.9mph 5°C 3°C
15/01/19 07:20 EGKB 150720Z 23007KT 9999 BKN025 05/03 Q1021 SW (230°) 8.1mph 5°C 3°C
15/01/19 06:50 EGKB 150650Z 23008KT 9999 BKN025 05/03 Q1021 SW (230°) 9.2mph 5°C 3°C
15/01/19 06:20 EGKB 150620Z 23008KT 9999 SCT028 04/02 Q1021 SW (230°) 9.2mph 4°C 2°C
14/01/19 22:20 EGKB 142220Z 25005KT CAVOK 05/01 Q1023 WSW (250°) 5.8mph 5°C 1°C
14/01/19 21:20 EGKB 142120Z 26007KT 230V290 9999 BKN042 06/01 Q1022 W (260°) 8.1mph 6°C 1°C
14/01/19 20:50 EGKB 142050Z 25008KT 9999 BKN042 06/02 Q1022 WSW (250°) 9.2mph 6°C 2°C
14/01/19 20:20 EGKB 142020Z 26006KT 9999 BKN044 06/02 Q1023 W (260°) 6.9mph 6°C 2°C
14/01/19 19:50 EGKB 141950Z 25006KT 9999 BKN046 06/03 Q1023 WSW (250°) 6.9mph 6°C 3°C
14/01/19 19:20 EGKB 141920Z 24004KT 210V290 9999 BKN046 06/03 Q1022 WSW (240°) 4.6mph 6°C 3°C
14/01/19 18:20 EGKB 141820Z 29006KT 9999 BKN048 07/03 Q1022 WNW (290°) 6.9mph 7°C 3°C
14/01/19 17:50 EGKB 141750Z 29008KT 260V320 9999 BKN048 07/03 Q1022 WNW (290°) 9.2mph 7°C 3°C
14/01/19 16:50 EGKB 141650Z 29006KT 260V320 9999 BKN045 07/03 Q1022 WNW (290°) 6.9mph 7°C 3°C
14/01/19 16:20 EGKB 141620Z 30009KT 270V330 9999 SCT025 07/03 Q1022 WNW (300°) 10.4mph 7°C 3°C
14/01/19 15:50 EGKB 141550Z 30007KT 9999 FEW025 SCT040 07/03 Q1022 WNW (300°) 8.1mph 7°C 3°C
14/01/19 15:20 EGKB 141520Z 31009KT 270V340 9999 FEW025 BKN036 08/02 Q1021 NW (310°) 10.4mph 8°C 2°C
14/01/19 14:20 EGKB 141420Z 29009KT 260V320 9999 FEW020 SCT040 08/02 Q1021 WNW (290°) 10.4mph 8°C 2°C
14/01/19 13:50 EGKB 141350Z 30011KT 9999 SCT020 SCT040 08/03 Q1021 WNW (300°) 12.7mph 8°C 3°C
14/01/19 13:20 EGKB 141320Z 30010KT 270V330 9999 FEW020 BKN040 07/03 Q1021 WNW (300°) 11.5mph 7°C 3°C
14/01/19 12:50 EGKB 141250Z 31010KT 260V330 9999 SCT020 BKN040 07/03 Q1021 NW (310°) 11.5mph 7°C 3°C
14/01/19 12:20 EGKB 141220Z 30009KT 260V330 9999 SCT020 07/03 Q1021 WNW (300°) 10.4mph 7°C 3°C
14/01/19 11:20 EGKB 141120Z 30009KT 9999 SCT020 07/03 Q1021 WNW (300°) 10.4mph 7°C 3°C
14/01/19 10:50 EGKB 141050Z 31010KT 280V340 9999 SCT020 07/03 Q1020 NW (310°) 11.5mph 7°C 3°C
14/01/19 10:20 EGKB 141020Z 30010KT 260V330 9999 FEW020 07/03 Q1020 WNW (300°) 11.5mph 7°C 3°C
14/01/19 09:50 EGKB 140950Z 30011KT 9999 FEW020 06/03 Q1020 WNW (300°) 12.7mph 6°C 3°C
14/01/19 09:20 EGKB 140920Z 30011KT 9999 FEW020 06/03 Q1020 WNW (300°) 12.7mph 6°C 3°C
14/01/19 08:50 EGKB 140850Z 30009KT 9999 FEW025 06/02 Q1019 WNW (300°) 10.4mph 6°C 2°C
14/01/19 07:50 EGKB 140750Z 30009KT 270V330 9999 FEW020 06/02 Q1018 WNW (300°) 10.4mph 6°C 2°C
14/01/19 07:20 EGKB 140720Z 31009KT 9999 FEW015 06/02 Q1018 NW (310°) 10.4mph 6°C 2°C
14/01/19 06:20 EGKB 140620Z 30009KT 270V330 9999 FEW025 06/02 Q1018 WNW (300°) 10.4mph 6°C 2°C
13/01/19 21:20 EGKB 132120Z 31022G41KT 9999 BKN047 09/01 Q1013 NW (310°) 25.3mph 47.2mph 9°C 1°C
13/01/19 20:50 EGKB 132050Z 32023G35KT 9999 SCT032 10/02 Q1012 NW (320°) 26.5mph 40.3mph 10°C 2°C
13/01/19 20:20 EGKB 132020Z 31019G34KT 9999 SCT035 10/05 Q1012 NW (310°) 21.9mph 39.1mph 10°C 5°C
13/01/19 19:50 EGKB 131950Z 29013KT 260V330 9999 SCT035 10/06 Q1011 WNW (290°) 15.0mph 10°C 6°C
13/01/19 19:20 EGKB 131920Z 28013G23KT 250V310 CAVOK 10/06 Q1011 W (280°) 15.0mph 26.5mph 10°C 6°C
13/01/19 18:50 EGKB 131850Z 28013KT 240V310 9999 SCT045 10/07 Q1011 W (280°) 15.0mph 10°C 7°C
13/01/19 18:20 EGKB 131820Z 28016KT 240V300 9999 SCT045 10/07 Q1011 W (280°) 18.4mph 10°C 7°C
13/01/19 17:50 EGKB 131750Z 27015KT 240V300 9999 FEW045 10/07 Q1010 W (270°) 17.3mph 10°C 7°C
13/01/19 17:20 EGKB 131720Z 27013KT 240V300 9999 FEW015 09/07 Q1010 W (270°) 15.0mph 9°C 7°C
13/01/19 16:50 EGKB 131650Z 26013G24KT 240V300 9999 BKN015 09/07 Q1011 W (260°) 15.0mph 27.6mph 9°C 7°C
13/01/19 16:20 EGKB 131620Z 27014KT 9999 BKN014 10/07 Q1011 W (270°) 16.1mph 10°C 7°C
13/01/19 15:50 EGKB 131550Z 27013G24KT 230V300 9999 BKN015 10/07 Q1011 W (270°) 15.0mph 27.6mph 10°C 7°C
13/01/19 15:20 EGKB 131520Z 27016G26KT 240V300 9999 BKN015 10/07 Q1011 W (270°) 18.4mph 29.9mph 10°C 7°C
13/01/19 14:50 EGKB 131450Z 27016G32KT 240V300 9999 BKN017 10/07 Q1011 W (270°) 18.4mph 36.8mph 10°C 7°C
13/01/19 14:20 EGKB 131420Z 27018G29KT 240V320 9999 SCT016 11/07 Q1010 W (270°) 20.7mph 33.4mph 11°C 7°C
13/01/19 13:50 EGKB 131350Z 28016G26KT 230V300 9999 SCT016 11/07 Q1011 W (280°) 18.4mph 29.9mph 11°C 7°C
13/01/19 13:20 EGKB 131320Z 28016G26KT 250V310 9999 SCT016 11/07 Q1011 W (280°) 18.4mph 29.9mph 11°C 7°C
13/01/19 12:50 EGKB 131250Z 28018G32KT 250V310 9999 FEW017 11/07 Q1012 W (280°) 20.7mph 36.8mph 11°C 7°C
13/01/19 12:20 EGKB 131220Z 28018G30KT 240V310 9999 FEW018 10/07 Q1012 W (280°) 20.7mph 34.5mph 10°C 7°C
13/01/19 11:50 EGKB 131150Z 27016G28KT 240V300 9999 FEW020 10/06 Q1012 W (270°) 18.4mph 32.2mph 10°C 6°C
13/01/19 11:20 EGKB 131120Z 28016G27KT 250V310 CAVOK 10/06 Q1013 W (280°) 18.4mph 31.1mph 10°C 6°C
13/01/19 10:50 EGKB 131050Z 27015G25KT 240V300 CAVOK 09/06 Q1013 W (270°) 17.3mph 28.8mph 9°C 6°C
13/01/19 10:20 EGKB 131020Z 26012KT 230V290 CAVOK 09/06 Q1013 W (260°) 13.8mph 9°C 6°C
13/01/19 09:50 EGKB 130950Z 26011KT 230V300 CAVOK 09/06 Q1014 W (260°) 12.7mph 9°C 6°C
13/01/19 09:20 EGKB 130920Z 26012KT 9999 FEW020 09/06 Q1014 W (260°) 13.8mph 9°C 6°C
13/01/19 08:50 EGKB 130850Z 28013KT 230V300 9999 FEW012 09/06 Q1015 W (280°) 15.0mph 9°C 6°C
13/01/19 08:20 EGKB 130820Z 26011G21KT 230V290 9999 FEW012 09/07 Q1014 W (260°) 12.7mph 24.2mph 9°C 7°C
13/01/19 07:50 EGKB 130750Z 27011KT 230V310 9999 FEW012 09/07 Q1014 W (270°) 12.7mph 9°C 7°C
12/01/19 21:20 EGKB 122120Z 27011KT 240V300 9999 BKN021 08/06 Q1019 W (270°) 12.7mph 8°C 6°C
12/01/19 20:50 EGKB 122050Z 27011KT 230V300 9999 -RA BKN021 08/06 Q1019 -RA W (270°) 12.7mph 8°C 6°C
12/01/19 20:20 EGKB 122020Z 27009KT 230V300 9999 -RA BKN019 08/06 Q1019 -RA W (270°) 10.4mph 8°C 6°C
12/01/19 19:50 EGKB 121950Z 27010KT 240V300 9999 -RA BKN020 08/05 Q1019 -RA W (270°) 11.5mph 8°C 5°C
12/01/19 19:20 EGKB 121920Z 27010KT 240V300 9999 -RA BKN023 08/05 Q1019 -RA W (270°) 11.5mph 8°C 5°C
12/01/19 18:50 EGKB 121850Z 27009KT 240V300 9999 BKN024 08/05 Q1019 W (270°) 10.4mph 8°C 5°C
12/01/19 18:20 EGKB 121820Z 27010KT 240V300 9999 BKN025 08/05 Q1020 W (270°) 11.5mph 8°C 5°C
12/01/19 17:50 EGKB 121750Z 27010KT 240V300 CAVOK 08/04 Q1020 W (270°) 11.5mph 8°C 4°C
12/01/19 17:20 EGKB 121720Z 27010KT 230V310 CAVOK 08/05 Q1020 W (270°) 11.5mph 8°C 5°C
12/01/19 16:50 EGKB 121650Z 28012KT 9999 -RA NSC 08/05 Q1020 -RA W (280°) 13.8mph 8°C 5°C
12/01/19 16:20 EGKB 121620Z 28013KT 9999 FEW022 09/05 Q1020 W (280°) 15.0mph 9°C 5°C
12/01/19 15:50 EGKB 121550Z 28012KT 250V310 9999 FEW025 09/05 Q1020 W (280°) 13.8mph 9°C 5°C
12/01/19 15:20 EGKB 121520Z 28013G24KT 250V310 9999 FEW022 09/05 Q1020 W (280°) 15.0mph 27.6mph 9°C 5°C
12/01/19 14:50 EGKB 121450Z 28011KT 250V310 9999 SCT020 09/05 Q1020 W (280°) 12.7mph 9°C 5°C
12/01/19 14:20 EGKB 121420Z 28013KT 250V310 9999 BKN020 09/06 Q1020 W (280°) 15.0mph 9°C 6°C
12/01/19 13:50 EGKB 121350Z 28013KT 240V300 9999 SCT015 09/06 Q1020 W (280°) 15.0mph 9°C 6°C
12/01/19 13:20 EGKB 121320Z 28012KT 240V310 9999 BKN014 09/07 Q1021 W (280°) 13.8mph 9°C 7°C
12/01/19 12:50 EGKB 121250Z 27013KT 240V300 9999 BKN012 09/07 Q1021 W (270°) 15.0mph 9°C 7°C
12/01/19 12:20 EGKB 121220Z 26009KT 230V300 9999 BKN011 09/07 Q1021 W (260°) 10.4mph 9°C 7°C
12/01/19 11:50 EGKB 121150Z 26013KT 9999 BKN011 09/07 Q1022 W (260°) 15.0mph 9°C 7°C
12/01/19 11:20 EGKB 121120Z 26011KT 220V290 9999 BKN012 08/06 Q1022 W (260°) 12.7mph 8°C 6°C
12/01/19 10:50 EGKB 121050Z 26011KT 220V290 9999 SCT010 08/06 Q1022 W (260°) 12.7mph 8°C 6°C
12/01/19 10:20 EGKB 121020Z 26012KT 230V290 9999 BKN012 08/06 Q1023 W (260°) 13.8mph 8°C 6°C
12/01/19 09:50 EGKB 120950Z 25013KT 220V280 9999 BKN011 08/06 Q1023 WSW (250°) 15.0mph 8°C 6°C
12/01/19 09:20 EGKB 120920Z 24012KT 210V270 9999 FEW015 BKN020 08/06 Q1023 WSW (240°) 13.8mph 8°C 6°C
12/01/19 08:50 EGKB 120850Z 24011KT 210V280 9999 FEW015 BKN020 08/06 Q1023 WSW (240°) 12.7mph 8°C 6°C
12/01/19 08:20 EGKB 120820Z 24012KT 200V270 9999 SCT015 08/06 Q1023 WSW (240°) 13.8mph 8°C 6°C
12/01/19 07:50 EGKB 120750Z 24012KT 210V300 9999 BKN015 07/06 Q1024 WSW (240°) 13.8mph 7°C 6°C
11/01/19 22:20 EGKB 112220Z 28006KT 250V320 9999 BKN030 06/03 Q1029 W (280°) 6.9mph 6°C 3°C
11/01/19 21:50 EGKB 112150Z 29007KT 9999 BKN030 06/03 Q1029 WNW (290°) 8.1mph 6°C 3°C
11/01/19 21:20 EGKB 112120Z 28007KT 9999 BKN026 06/04 Q1030 W (280°) 8.1mph 6°C 4°C
11/01/19 20:50 EGKB 112050Z 27006KT 9999 BKN025 06/04 Q1030 W (270°) 6.9mph 6°C 4°C
11/01/19 20:20 EGKB 112020Z 27005KT 240V300 9999 BKN022 05/04 Q1030 W (270°) 5.8mph 5°C 4°C
11/01/19 19:50 EGKB 111950Z 27005KT 230V290 9999 BKN022 05/04 Q1030 W (270°) 5.8mph 5°C 4°C
11/01/19 19:20 EGKB 111920Z 27005KT 240V300 9999 BKN022 05/04 Q1030 W (270°) 5.8mph 5°C 4°C
11/01/19 18:50 EGKB 111850Z 27004KT 240V300 9999 SCT025 05/04 Q1030 W (270°) 4.6mph 5°C 4°C
11/01/19 18:20 EGKB 111820Z 26005KT 9999 SCT030 05/04 Q1030 W (260°) 5.8mph 5°C 4°C
11/01/19 17:50 EGKB 111750Z 25004KT 9999 SCT035 05/04 Q1030 WSW (250°) 4.6mph 5°C 4°C
11/01/19 17:20 EGKB 111720Z 26005KT 9999 FEW020 SCT030 06/04 Q1030 W (260°) 5.8mph 6°C 4°C
11/01/19 16:50 EGKB 111650Z 25005KT 9999 SCT018 06/04 Q1030 WSW (250°) 5.8mph 6°C 4°C
11/01/19 15:50 EGKB 111550Z 28004KT 9000 NSC 06/04 Q1030 W (280°) 4.6mph 6°C 4°C
11/01/19 15:20 EGKB 111520Z 27005KT 240V300 9999 SCT017 07/05 Q1030 W (270°) 5.8mph 7°C 5°C
11/01/19 14:50 EGKB 111450Z 30004KT 260V320 9999 FEW020 SCT045 07/05 Q1030 WNW (300°) 4.6mph 7°C 5°C
11/01/19 14:20 EGKB 111420Z 29006KT 260V320 9999 SCT045 07/05 Q1030 WNW (290°) 6.9mph 7°C 5°C
11/01/19 13:20 EGKB 111320Z 29006KT 250V320 9999 FEW015 07/05 Q1030 WNW (290°) 6.9mph 7°C 5°C
11/01/19 12:50 EGKB 111250Z 29006KT 8000 FEW010 07/05 Q1030 WNW (290°) 6.9mph 7°C 5°C
11/01/19 12:20 EGKB 111220Z 29006KT 260V320 8000 FEW010 07/05 Q1030 WNW (290°) 6.9mph 7°C 5°C
11/01/19 11:50 EGKB 111150Z 29005KT 8000 NSC 07/05 Q1030 WNW (290°) 5.8mph 7°C 5°C
11/01/19 11:20 EGKB 111120Z 29005KT 6000 FEW025 06/05 Q1030 WNW (290°) 5.8mph 6°C 5°C
11/01/19 10:50 EGKB 111050Z 30004KT 7000 FEW025 06/05 Q1030 WNW (300°) 4.6mph 6°C 5°C
11/01/19 10:20 EGKB 111020Z 31005KT 7000 FEW025 06/05 Q1030 NW (310°) 5.8mph 6°C 5°C
11/01/19 09:50 EGKB 110950Z 28004KT 7000 SCT010 SCT015 06/05 Q1030 W (280°) 4.6mph 6°C 5°C
11/01/19 09:20 EGKB 110920Z VRB03KT 8000 SCT010 SCT030 06/05 Q1030 N (0°) 3.5mph 6°C 5°C
11/01/19 08:50 EGKB 110850Z VRB03KT 6000 BKN025 06/05 Q1030 N (0°) 3.5mph 6°C 5°C
11/01/19 08:20 EGKB 110820Z 30005KT 6000 FEW010 SCT020 06/05 Q1029 WNW (300°) 5.8mph 6°C 5°C
11/01/19 07:50 EGKB 110750Z 31003KT 6000 -DZ BKN010 06/05 Q1029 -DZ NW (310°) 3.5mph 6°C 5°C
11/01/19 07:20 EGKB 110720Z 31005KT 7000 -RADZ BKN010 06/05 Q1029 -RA -DZ NW (310°) 5.8mph 6°C 5°C
11/01/19 06:20 EGKB 110620Z 31005KT 7000 BKN006 06/05 Q1028 NW (310°) 5.8mph 6°C 5°C
10/01/19 22:20 EGKB 102220Z 28007KT 1800 BR OVC004 04/04 Q1029 BR W (280°) 8.1mph 4°C 4°C